Ever Delight — 3FCB8 — position and weather

sailwx.info

Track history (hours):
 
Tides and Currents Weather Stations Pressure Air Temp Water Temp Dewpoint Dewpoint Depression Visibility Wind Speed Wind Dir Waves Ship Positions

Ever Delight

Last reported at 2015-Mar-31 13:33 UTC. Time now 2015-Apr-01 09:24 UTC.
Position N 35°57' E 120°39'.

Type: Cargo ship. MMSI: 351936000.

Date/timePositionNaut miles runAvg speedWind from/ knotsBaromVisibWave heightAir tempDewpointWater temp
2015-Mar-31 13:33N 35°57' E 120°39'1515.2
2015-Mar-31 12:33N 36°01' E 120°21'7 0.6
2015-Mar-31 01:09N 36°00' E 120°13'0 0.0
2015-Mar-30 16:28N 36°00' E 120°13'7 7.1
2015-Mar-30 15:33N 36°02' E 120°21'1514.7
2015-Mar-30 14:33N 35°58' E 120°38'16 0.5
2015-Mar-29 06:18N 35°48' E 120°54'24717.9
2015-Mar-28 16:32N 32°10' E 123°15'2019.4
2015-Mar-28 15:28N 31°50' E 123°12'2119.4
2015-Mar-28 14:24N 31°30' E 123°06'1719.9
2015-Mar-28 13:33N 31°14' E 123°01'2019.9
2015-Mar-28 12:33N 30°54' E 122°57'1919.4
2015-Mar-28 11:33N 30°38' E 122°45'1918.9
2015-Mar-28 10:33N 30°32' E 122°24'1313.4
2015-Mar-28 09:34N 30°35' E 122°09'4 4.0
2015-Mar-28 08:32N 30°37' E 122°05'0 0.0
2015-Mar-28 07:12N 30°37' E 122°05'0 0.0
2015-Mar-28 05:12N 30°37' E 122°05'0 0.0
2015-Mar-28 03:30N 30°37' E 122°05'0 0.0
2015-Mar-28 02:18N 30°37' E 122°05'0 0.0
2015-Mar-28 01:33N 30°37' E 122°05'0 0.0
2015-Mar-28 00:27N 30°37' E 122°05'0 0.0
2015-Mar-27 22:33N 30°37' E 122°05'7 6.5
2015-Mar-27 21:28N 30°34' E 122°12'9 9.3
2015-Mar-27 20:31N 30°33' E 122°22'11 3.6
2015-Mar-27 17:33N 30°30' E 122°34'7 0.4
2015-Mar-26 23:30N 30°26' E 122°42'5215.3
2015-Mar-26 20:05N 29°56' E 121°52'0 0.0
2015-Mar-26 08:27N 29°56' E 121°52'0 0.0
2015-Mar-26 07:09N 29°56' E 121°52'0 0.0
2015-Mar-26 05:21N 29°56' E 121°52'0 0.3
2015-Mar-26 03:33N 29°56' E 121°53'7 7.0
2015-Mar-26 02:33N 29°56' E 122°01'1211.9
2015-Mar-26 01:33N 29°50' E 122°13'8 8.1
2015-Mar-26 00:33N 29°46' E 122°20'2 1.9
2015-Mar-25 23:30N 29°46' E 122°22'0 0.0
2015-Mar-25 21:30N 29°46' E 122°22'13 0.6
2015-Mar-25 00:16N 29°50' E 122°08'0 0.1
2015-Mar-24 19:05N 29°50' E 122°08'0 0.1
2015-Mar-24 18:05N 29°50' E 122°08'0 0.0
2015-Mar-24 17:11N 29°50' E 122°08'0 0.1
2015-Mar-24 16:23N 29°50' E 122°08'0 0.0
2015-Mar-24 15:29N 29°50' E 122°08'0 0.1
2015-Mar-24 14:23N 29°50' E 122°08'0 0.0
2015-Mar-24 08:17N 29°50' E 122°08'0 0.1
2015-Mar-24 05:11N 29°50' E 122°08'0 0.1
2015-Mar-24 04:17N 29°50' E 122°08'0 0.2
2015-Mar-24 03:16N 29°50' E 122°08'2 0.8
2015-Mar-24 00:07N 29°47' E 122°07'0 0.0
2015-Mar-23 22:13N 29°47' E 122°07'0 0.0
2015-Mar-23 21:31N 29°47' E 122°07'0 0.0
2015-Mar-23 18:19N 29°47' E 122°07'0 0.0
2015-Mar-23 17:03N 29°47' E 122°07'0 0.0
2015-Mar-23 13:21N 29°47' E 122°07'0 0.0
2015-Mar-23 12:30N 29°47' E 122°07'  
Track history (hours):
 
Tides and Currents Weather Stations Pressure Air Temp Water Temp Dewpoint Dewpoint Depression Visibility Wind Speed Wind Dir Waves Ship Positions

Ever Delight

Last reported at 2015-Mar-31 13:33 UTC. Time now 2015-Apr-01 09:24 UTC.
Position N 35°57' E 120°39'.

Type: Cargo ship. MMSI: 351936000.

Date/timePositionNaut miles runAvg speedWind from/ knotsBaromVisibWave heightAir tempDewpointWater temp
2015-Mar-31 13:33N 35°57' E 120°39'1515.2
2015-Mar-31 12:33N 36°01' E 120°21'7 0.6
2015-Mar-31 01:09N 36°00' E 120°13'0 0.0
2015-Mar-30 16:28N 36°00' E 120°13'7 7.1
2015-Mar-30 15:33N 36°02' E 120°21'1514.7
2015-Mar-30 14:33N 35°58' E 120°38'16 0.5
2015-Mar-29 06:18N 35°48' E 120°54'24717.9
2015-Mar-28 16:32N 32°10' E 123°15'2019.4
2015-Mar-28 15:28N 31°50' E 123°12'2119.4
2015-Mar-28 14:24N 31°30' E 123°06'1719.9
2015-Mar-28 13:33N 31°14' E 123°01'2019.9
2015-Mar-28 12:33N 30°54' E 122°57'1919.4
2015-Mar-28 11:33N 30°38' E 122°45'1918.9
2015-Mar-28 10:33N 30°32' E 122°24'1313.4
2015-Mar-28 09:34N 30°35' E 122°09'4 4.0
2015-Mar-28 08:32N 30°37' E 122°05'0 0.0
2015-Mar-28 07:12N 30°37' E 122°05'0 0.0
2015-Mar-28 05:12N 30°37' E 122°05'0 0.0
2015-Mar-28 03:30N 30°37' E 122°05'0 0.0
2015-Mar-28 02:18N 30°37' E 122°05'0 0.0
2015-Mar-28 01:33N 30°37' E 122°05'0 0.0
2015-Mar-28 00:27N 30°37' E 122°05'0 0.0
2015-Mar-27 22:33N 30°37' E 122°05'7 6.5
2015-Mar-27 21:28N 30°34' E 122°12'9 9.3
2015-Mar-27 20:31N 30°33' E 122°22'11 3.6
2015-Mar-27 17:33N 30°30' E 122°34'7 0.4
2015-Mar-26 23:30N 30°26' E 122°42'5215.3
2015-Mar-26 20:05N 29°56' E 121°52'0 0.0
2015-Mar-26 08:27N 29°56' E 121°52'0 0.0
2015-Mar-26 07:09N 29°56' E 121°52'0 0.0
2015-Mar-26 05:21N 29°56' E 121°52'0 0.3
2015-Mar-26 03:33N 29°56' E 121°53'7 7.0
2015-Mar-26 02:33N 29°56' E 122°01'1211.9
2015-Mar-26 01:33N 29°50' E 122°13'8 8.1
2015-Mar-26 00:33N 29°46' E 122°20'2 1.9
2015-Mar-25 23:30N 29°46' E 122°22'0 0.0
2015-Mar-25 21:30N 29°46' E 122°22'13 0.6
2015-Mar-25 00:16N 29°50' E 122°08'0 0.1
2015-Mar-24 19:05N 29°50' E 122°08'0 0.1
2015-Mar-24 18:05N 29°50' E 122°08'0 0.0
2015-Mar-24 17:11N 29°50' E 122°08'0 0.1
2015-Mar-24 16:23N 29°50' E 122°08'0 0.0
2015-Mar-24 15:29N 29°50' E 122°08'0 0.1
2015-Mar-24 14:23N 29°50' E 122°08'0 0.0
2015-Mar-24 08:17N 29°50' E 122°08'0 0.1
2015-Mar-24 05:11N 29°50' E 122°08'0 0.1
2015-Mar-24 04:17N 29°50' E 122°08'0 0.2
2015-Mar-24 03:16N 29°50' E 122°08'2 0.8
2015-Mar-24 00:07N 29°47' E 122°07'0 0.0
2015-Mar-23 22:13N 29°47' E 122°07'0 0.0
2015-Mar-23 21:31N 29°47' E 122°07'0 0.0
2015-Mar-23 18:19N 29°47' E 122°07'0 0.0
2015-Mar-23 17:03N 29°47' E 122°07'0 0.0
2015-Mar-23 13:21N 29°47' E 122°07'0 0.0
2015-Mar-23 12:30N 29°47' E 122°07'  

Dump ship's entire track history